createdAt,value
2022-11-16T00:00:05.776Z,38.73
2022-11-16T00:04:13.146Z,33.50
2022-11-16T00:08:16.395Z,32.80
2022-11-16T00:12:19.748Z,32.00
2022-11-16T00:16:23.097Z,32.17
2022-11-16T00:20:27.799Z,28.40
2022-11-16T00:24:31.297Z,32.23
2022-11-16T00:28:35.078Z,31.00
2022-11-16T00:32:38.609Z,31.17
2022-11-16T00:36:43.456Z,33.83
2022-11-16T00:40:46.743Z,35.03
2022-11-16T00:44:50.051Z,28.43
2022-11-16T00:48:53.333Z,39.53
2022-11-16T00:52:58.032Z,34.97
2022-11-16T00:57:01.345Z,30.40
2022-11-16T01:01:07.513Z,28.80
2022-11-16T01:05:12.309Z,32.73
2022-11-16T01:09:17.011Z,27.63
2022-11-16T01:13:20.333Z,30.17
2022-11-16T01:17:23.664Z,34.20
2022-11-16T01:21:27.762Z,31.47
2022-11-16T01:25:34.204Z,29.00
2022-11-16T01:29:37.500Z,33.70
2022-11-16T01:33:41.061Z,30.53
2022-11-16T01:37:44.454Z,33.90
2022-11-16T01:41:49.322Z,27.37
2022-11-16T01:45:52.852Z,27.77
2022-11-16T01:50:00.763Z,28.50
2022-11-16T01:54:08.925Z,25.77
2022-11-16T01:58:16.822Z,24.97
2022-11-16T02:02:20.298Z,29.43
2022-11-16T02:06:38.662Z,33.23
2022-11-16T02:10:55.701Z,27.77
2022-11-16T02:15:10.410Z,29.83
2022-11-16T02:19:35.258Z,29.60
2022-11-16T02:24:16.118Z,35.20
2022-11-16T02:28:35.470Z,28.30
2022-11-16T02:32:46.450Z,34.97
2022-11-16T02:36:53.926Z,32.30
2022-11-16T02:41:03.004Z,29.37
2022-11-16T02:45:10.137Z,31.07
2022-11-16T02:49:19.020Z,28.93
2022-11-16T02:53:23.863Z,25.93
2022-11-16T02:57:45.713Z,30.90
2022-11-16T03:01:54.667Z,31.40
2022-11-16T03:06:04.040Z,28.80
2022-11-16T03:10:08.471Z,31.47
2022-11-16T03:14:15.968Z,31.13
2022-11-16T03:18:22.435Z,31.80
2022-11-16T03:22:32.255Z,29.23
2022-11-16T03:26:43.692Z,29.13
2022-11-16T03:30:53.764Z,32.67
2022-11-16T03:35:01.697Z,30.00
2022-11-16T03:39:11.829Z,30.40
2022-11-16T03:43:16.622Z,28.93
2022-11-16T03:47:19.955Z,31.70
2022-11-16T03:51:23.273Z,35.97
2022-11-16T03:55:28.213Z,29.60
2022-11-16T03:59:31.515Z,34.93
2022-11-16T04:03:34.901Z,23.50
2022-11-16T04:07:58.480Z,26.90
2022-11-16T04:12:20.760Z,28.37
2022-11-16T04:16:41.590Z,26.40
2022-11-16T04:21:03.382Z,30.60
2022-11-16T04:25:10.887Z,22.80
2022-11-16T04:29:15.878Z,28.00
2022-11-16T04:33:37.016Z,26.67
2022-11-16T04:37:53.506Z,30.37
2022-11-16T04:42:14.307Z,33.57
2022-11-16T04:46:36.150Z,30.90
2022-11-16T04:50:40.039Z,30.30
2022-11-16T04:54:43.374Z,29.70
2022-11-16T04:58:46.715Z,30.37
2022-11-16T05:02:53.692Z,32.40
2022-11-16T05:06:58.991Z,31.10
2022-11-16T05:11:02.254Z,32.77
2022-11-16T05:15:07.491Z,32.70
2022-11-16T05:19:29.595Z,31.10
2022-11-16T05:23:50.005Z,30.63
2022-11-16T05:27:53.309Z,27.07
2022-11-16T05:31:56.571Z,29.80
2022-11-16T05:36:01.338Z,31.17
2022-11-16T05:40:04.976Z,24.47
2022-11-16T05:44:08.312Z,32.00
2022-11-16T05:48:11.628Z,28.53
2022-11-16T05:52:16.283Z,29.50
2022-11-16T05:56:19.881Z,29.03
2022-11-16T06:00:23.403Z,29.47
2022-11-16T06:04:26.830Z,28.27
2022-11-16T06:08:32.274Z,28.53
2022-11-16T06:12:35.796Z,29.80
2022-11-16T06:16:39.118Z,27.47
2022-11-16T06:20:42.440Z,41.83
2022-11-16T06:24:47.115Z,28.20
2022-11-16T06:28:50.526Z,36.43
2022-11-16T06:32:53.826Z,27.63
2022-11-16T06:36:57.139Z,31.40
2022-11-16T06:41:01.779Z,36.97
2022-11-16T06:45:05.911Z,30.37
2022-11-16T06:49:09.943Z,25.20
2022-11-16T06:53:13.380Z,31.30
2022-11-16T06:57:18.567Z,30.67
2022-11-16T07:01:21.961Z,29.17
2022-11-16T07:05:26.322Z,24.60
2022-11-16T07:09:29.689Z,26.83
2022-11-16T07:13:35.117Z,31.53
2022-11-16T07:17:38.647Z,40.13
2022-11-16T07:21:42.019Z,28.90
2022-11-16T07:25:47.769Z,26.47
2022-11-16T07:29:52.759Z,24.93
2022-11-16T07:33:56.379Z,35.47
2022-11-16T07:37:59.687Z,31.80
2022-11-16T07:42:03.034Z,31.67
2022-11-16T07:50:41.506Z,24.70
2022-11-16T07:54:44.845Z,29.97
2022-11-16T07:58:48.190Z,26.70
2022-11-16T08:02:52.954Z,28.87
2022-11-16T08:06:56.331Z,30.13
2022-11-16T08:11:03.109Z,30.60
2022-11-16T08:15:07.386Z,31.27
2022-11-16T08:19:11.999Z,33.60
2022-11-16T08:23:16.107Z,34.87
2022-11-16T08:27:20.890Z,27.77
2022-11-16T08:31:27.076Z,28.83
2022-11-16T08:35:32.338Z,30.70
2022-11-16T08:39:36.852Z,31.60
2022-11-16T08:43:40.771Z,29.37
2022-11-16T08:47:45.245Z,31.97
2022-11-16T08:51:50.175Z,28.80
2022-11-16T08:55:54.094Z,30.80
2022-11-16T08:59:57.595Z,43.67
2022-11-16T09:04:03.538Z,34.00
2022-11-16T09:08:08.243Z,30.87
2022-11-16T09:12:11.633Z,34.20
2022-11-16T09:16:16.905Z,34.10
2022-11-16T09:20:20.393Z,30.87
2022-11-16T09:24:25.422Z,26.93
2022-11-16T09:28:29.096Z,31.33
2022-11-16T09:32:32.813Z,29.90
2022-11-16T09:36:37.022Z,32.27
2022-11-16T09:45:21.515Z,30.45
2022-11-16T09:49:30.440Z,28.47
2022-11-16T09:53:40.077Z,33.60
2022-11-16T09:57:43.574Z,29.00
2022-11-16T10:01:54.403Z,30.00
2022-11-16T10:10:42.752Z,31.83
2022-11-16T10:15:10.921Z,31.00
2022-11-16T10:19:32.496Z,32.30
2022-11-16T10:24:14.613Z,30.70
2022-11-16T10:28:37.175Z,30.43
2022-11-16T10:32:50.970Z,29.17
2022-11-16T10:37:03.718Z,25.10
2022-11-16T10:46:04.915Z,33.93
2022-11-16T10:50:41.357Z,30.63
2022-11-16T10:54:46.918Z,25.10
2022-11-16T10:58:52.967Z,28.33
2022-11-16T11:03:52.254Z,30.20
2022-11-16T11:08:06.877Z,29.77
2022-11-16T11:12:38.912Z,28.80
2022-11-16T11:16:44.598Z,31.30
2022-11-16T11:20:51.344Z,30.83
2022-11-16T11:25:03.779Z,27.40
2022-11-16T11:29:27.808Z,29.47
2022-11-16T11:33:53.483Z,29.87
2022-11-16T11:38:04.792Z,26.57
2022-11-16T11:46:56.083Z,30.17
2022-11-16T11:55:20.153Z,28.83
2022-11-16T11:59:26.939Z,28.63
2022-11-16T12:04:03.038Z,27.43
2022-11-16T12:08:31.013Z,25.40
2022-11-16T12:12:51.391Z,27.33
2022-11-16T12:17:04.368Z,32.33
2022-11-16T12:21:15.948Z,25.37
2022-11-16T12:25:31.453Z,21.27
2022-11-16T12:29:55.234Z,21.03
2022-11-16T12:44:56.413Z,19.00
2022-11-16T12:49:32.909Z,21.87
2022-11-16T12:55:24.953Z,16.53
2022-11-16T12:59:58.158Z,16.87
2022-11-16T13:04:07.050Z,16.13
2022-11-16T13:08:14.596Z,15.70
2022-11-16T13:12:23.588Z,15.20
2022-11-16T13:16:28.980Z,16.40
2022-11-16T13:20:40.835Z,14.67
2022-11-16T13:24:51.622Z,16.53
2022-11-16T13:29:01.786Z,16.27
2022-11-16T13:33:23.704Z,17.67
2022-11-16T13:37:50.093Z,16.47
2022-11-16T13:42:07.349Z,15.47
2022-11-16T13:46:27.624Z,15.63
2022-11-16T13:50:41.381Z,13.27
2022-11-16T13:54:48.999Z,15.57
2022-11-16T13:58:56.002Z,13.87
2022-11-16T14:03:40.031Z,15.00
2022-11-16T14:07:48.171Z,12.50
2022-11-16T14:11:51.638Z,16.07
2022-11-16T14:16:56.018Z,12.57
2022-11-16T14:21:00.696Z,14.90
2022-11-16T14:25:14.381Z,13.90
2022-11-16T14:29:36.723Z,14.53
2022-11-16T14:33:40.882Z,17.40
2022-11-16T14:37:44.461Z,15.40
2022-11-16T14:41:49.564Z,14.83
2022-11-16T14:45:56.263Z,16.37
2022-11-16T14:49:59.799Z,15.60
2022-11-16T14:54:06.356Z,15.97
2022-11-16T14:58:18.198Z,16.57
2022-11-16T15:02:32.151Z,16.97
2022-11-16T15:06:43.424Z,20.00
2022-11-16T15:10:52.570Z,18.30
2022-11-16T15:15:02.203Z,18.77
2022-11-16T15:19:13.155Z,21.30
2022-11-16T15:23:17.116Z,25.17
2022-11-16T15:27:28.942Z,20.33
2022-11-16T15:31:35.879Z,25.93
2022-11-16T15:35:39.897Z,24.40
2022-11-16T15:39:44.228Z,21.40
2022-11-16T15:44:12.300Z,21.00
2022-11-16T15:48:21.195Z,22.87
2022-11-16T15:52:43.719Z,26.23
2022-11-16T15:56:47.872Z,22.10
2022-11-16T16:00:51.345Z,20.70
2022-11-16T16:04:56.205Z,23.63
2022-11-16T16:09:06.123Z,24.80
2022-11-16T16:13:27.610Z,20.17
2022-11-16T16:17:31.706Z,20.77
2022-11-16T16:21:50.516Z,26.63
2022-11-16T16:25:53.859Z,25.33
2022-11-16T16:30:02.036Z,21.57
2022-11-16T16:34:14.537Z,27.00
2022-11-16T16:38:22.127Z,27.77
2022-11-16T16:42:27.049Z,24.00
2022-11-16T16:46:30.969Z,23.00
2022-11-16T16:50:34.687Z,21.83
2022-11-16T16:54:40.941Z,19.97
2022-11-16T16:58:44.426Z,23.90
2022-11-16T17:02:48.178Z,32.67
2022-11-16T17:06:53.722Z,24.37
2022-11-16T17:10:59.445Z,26.70
2022-11-16T17:15:05.504Z,23.47
2022-11-16T17:19:11.714Z,27.60
2022-11-16T17:23:23.310Z,24.87
2022-11-16T17:27:34.411Z,26.53
2022-11-16T17:31:43.629Z,23.40
2022-11-16T17:35:58.273Z,23.67
2022-11-16T17:40:06.671Z,22.60
2022-11-16T17:44:14.932Z,25.40
2022-11-16T17:48:23.071Z,22.87
2022-11-16T17:52:28.522Z,26.70
2022-11-16T17:56:32.717Z,24.17
2022-11-16T18:00:39.501Z,22.70
2022-11-16T18:04:51.436Z,26.37
2022-11-16T18:08:56.303Z,30.90
2022-11-16T18:13:02.166Z,29.83
2022-11-16T18:17:07.875Z,22.23
2022-11-16T18:21:20.107Z,24.73
2022-11-16T18:25:32.998Z,28.40
2022-11-16T18:29:37.762Z,23.20
2022-11-16T18:33:44.798Z,30.20
2022-11-16T18:37:52.107Z,32.50
2022-11-16T18:41:56.202Z,28.93
2022-11-16T18:46:00.788Z,26.93
2022-11-16T18:50:18.066Z,27.30
2022-11-16T18:54:28.776Z,27.40
2022-11-16T18:58:50.371Z,27.40
2022-11-16T19:02:58.452Z,31.57
2022-11-16T19:07:07.118Z,38.73
2022-11-16T19:11:15.107Z,25.60
2022-11-16T19:15:28.974Z,31.27
2022-11-16T19:19:39.083Z,30.80
2022-11-16T19:24:00.860Z,30.13
2022-11-16T19:28:12.981Z,26.77
2022-11-16T19:32:28.408Z,30.77
2022-11-16T19:36:36.344Z,33.57
2022-11-16T19:40:43.941Z,36.63
2022-11-16T19:44:49.615Z,31.20
2022-11-16T19:49:00.020Z,33.33
2022-11-16T19:53:09.945Z,39.60
2022-11-16T19:57:26.667Z,32.20
2022-11-16T20:01:33.239Z,33.90
2022-11-16T20:05:39.145Z,32.80
2022-11-16T20:09:53.466Z,36.47
2022-11-16T20:14:04.847Z,36.70
2022-11-16T20:18:11.853Z,34.03
2022-11-16T20:22:20.634Z,32.17
2022-11-16T20:26:32.515Z,31.30
2022-11-16T20:30:39.728Z,31.70
2022-11-16T20:34:44.457Z,37.27
2022-11-16T20:38:53.308Z,30.50
2022-11-16T20:43:00.659Z,29.63
2022-11-16T20:47:07.750Z,32.20
2022-11-16T20:51:13.667Z,28.57
2022-11-16T20:55:19.043Z,30.83
2022-11-16T20:59:22.698Z,32.23
2022-11-16T21:03:28.311Z,36.43
2022-11-16T21:07:32.804Z,31.07
2022-11-16T21:11:56.177Z,32.40
2022-11-16T21:16:00.853Z,35.00
2022-11-16T21:20:26.444Z,31.33
2022-11-16T21:24:39.263Z,28.40
2022-11-16T21:28:45.131Z,39.67
2022-11-16T21:32:48.524Z,38.93
2022-11-16T21:36:53.318Z,31.70
2022-11-16T21:40:58.021Z,31.10
2022-11-16T21:45:01.665Z,33.50
2022-11-16T21:49:04.965Z,33.70
2022-11-16T21:53:10.129Z,30.07
2022-11-16T21:57:13.573Z,35.30
2022-11-16T22:01:17.020Z,29.20
2022-11-16T22:05:37.926Z,34.37
2022-11-16T22:09:42.628Z,34.73
2022-11-16T22:13:46.098Z,30.00
2022-11-16T22:17:49.371Z,37.30
2022-11-16T22:21:52.655Z,34.83
2022-11-16T22:26:02.275Z,35.47
2022-11-16T22:30:07.205Z,33.93
2022-11-16T22:34:10.511Z,30.37
2022-11-16T22:38:13.783Z,37.07
2022-11-16T22:42:18.456Z,36.27
2022-11-16T22:46:21.743Z,43.50
2022-11-16T22:50:24.990Z,35.53
2022-11-16T22:54:30.284Z,34.90
2022-11-16T22:58:35.133Z,36.23
2022-11-16T23:02:38.457Z,28.33
2022-11-16T23:06:41.825Z,34.20
2022-11-16T23:10:59.004Z,31.07
2022-11-16T23:15:20.939Z,33.67
2022-11-16T23:19:42.087Z,34.13
2022-11-16T23:24:02.845Z,33.97
2022-11-16T23:28:08.995Z,33.77
2022-11-16T23:32:14.029Z,30.77
2022-11-16T23:36:17.340Z,37.43
2022-11-16T23:40:22.200Z,38.23
2022-11-16T23:44:25.522Z,43.80
2022-11-16T23:48:30.175Z,43.63
2022-11-16T23:52:33.457Z,46.47
2022-11-16T23:56:37.175Z,47.33
